Time;durP1;ratioP1;P1;durP2;ratioP2;P2;SDS_P1;SDS_P2;PMS_P1;PMS_P2;Temp;Humidity;BMP_temperature;BMP_pressure;BME280_temperature;BME280_humidity;BME280_pressure;Samples;Min_cycle;Max_cycle;Signal;HPM_P1;HPM_P2
2023/10/09 00:02:58;;;;;;;17.67;8.97;;;11.60;99.90;;;;;;4969647;28;20549;-72
2023/10/09 00:05:38;;;;;;;22.10;9.83;;;11.60;99.90;;;;;;4970271;28;20878;-71
2023/10/09 00:08:08;;;;;;;19.10;8.47;;;11.60;99.90;;;;;;4970159;28;20442;-71
2023/10/09 00:10:44;;;;;;;17.03;9.00;;;11.50;99.90;;;;;;4969802;28;20881;-71
2023/10/09 00:13:12;;;;;;;17.73;8.00;;;11.50;99.90;;;;;;4969951;28;20985;-72
2023/10/09 00:15:43;;;;;;;16.00;8.10;;;11.50;99.90;;;;;;4969944;28;20451;-71
2023/10/09 00:18:12;;;;;;;20.33;10.37;;;11.50;99.90;;;;;;4970138;28;20450;-71
2023/10/09 00:20:42;;;;;;;17.37;9.30;;;11.50;99.90;;;;;;4969688;28;20800;-72
2023/10/09 00:23:15;;;;;;;17.17;8.67;;;11.50;99.90;;;;;;4969775;28;20517;-71
2023/10/09 00:26:06;;;;;;;17.87;10.03;;;11.50;99.90;;;;;;4969868;28;20453;-72
2023/10/09 00:28:35;;;;;;;20.90;11.47;;;11.60;99.90;;;;;;4966893;28;20498;-71
2023/10/09 00:31:07;;;;;;;20.70;9.10;;;11.60;99.90;;;;;;4969531;28;20455;-71
2023/10/09 00:33:35;;;;;;;25.23;11.33;;;11.50;99.90;;;;;;4969721;28;20468;-71
2023/10/09 00:36:09;;;;;;;19.23;9.67;;;11.60;99.90;;;;;;4967528;28;20532;-70
2023/10/09 00:38:44;;;;;;;17.07;8.67;;;11.70;99.90;;;;;;4969573;28;20544;-73
2023/10/09 00:41:19;;;;;;;23.33;9.27;;;11.80;99.90;;;;;;4969160;28;20828;-72
2023/10/09 00:43:49;;;;;;;19.47;8.97;;;11.90;99.90;;;;;;4969619;28;20470;-72
2023/10/09 00:46:24;;;;;;;16.63;8.40;;;11.90;99.90;;;;;;4969784;28;21092;-71
2023/10/09 00:48:56;;;;;;;19.27;8.47;;;11.90;99.90;;;;;;4969942;28;20879;-72
2023/10/09 00:51:25;;;;;;;17.87;8.33;;;12.00;99.90;;;;;;4969325;28;20482;-73
2023/10/09 00:53:58;;;;;;;21.77;8.53;;;11.90;99.90;;;;;;4969527;28;20491;-71
2023/10/09 00:56:38;;;;;;;18.93;8.40;;;12.00;99.90;;;;;;4965720;28;20455;-71
2023/10/09 00:59:14;;;;;;;20.33;9.17;;;11.90;99.90;;;;;;4964614;28;20489;-71
2023/10/09 01:01:55;;;;;;;18.90;10.87;;;11.80;99.90;;;;;;4969252;28;20483;-71
2023/10/09 01:04:28;;;;;;;18.90;9.27;;;11.80;99.90;;;;;;4969798;28;20450;-72
2023/10/09 01:07:08;;;;;;;17.10;8.07;;;11.70;99.90;;;;;;4968800;28;20453;-71
2023/10/09 01:09:37;;;;;;;15.23;7.60;;;11.70;99.90;;;;;;4973229;28;20446;-71
2023/10/09 01:12:06;;;;;;;19.63;10.17;;;11.80;99.90;;;;;;4972976;28;20527;-71
2023/10/09 01:14:36;;;;;;;18.60;8.50;;;11.80;99.90;;;;;;4973612;28;20495;-74
2023/10/09 01:17:29;;;;;;;17.77;8.70;;;11.80;99.90;;;;;;4973509;28;20985;-71
2023/10/09 01:20:03;;;;;;;19.37;8.63;;;12.00;99.90;;;;;;4973255;28;20461;-71
2023/10/09 01:22:31;;;;;;;22.30;9.87;;;12.00;99.90;;;;;;4973091;28;20607;-71
2023/10/09 01:25:03;;;;;;;20.07;9.87;;;12.00;99.90;;;;;;4973471;28;20509;-73
2023/10/09 01:27:32;;;;;;;19.80;8.50;;;12.10;99.90;;;;;;4973563;28;20474;-71
2023/10/09 01:30:00;;;;;;;15.63;8.70;;;12.20;99.90;;;;;;4973428;28;20442;-71
2023/10/09 01:32:29;;;;;;;17.00;8.50;;;12.20;99.90;;;;;;4972978;28;20481;-71
2023/10/09 01:34:57;;;;;;;17.10;8.20;;;12.30;99.90;;;;;;4973272;28;20496;-73
2023/10/09 01:37:29;;;;;;;20.07;9.60;;;12.30;99.90;;;;;;4973255;28;20460;-71
2023/10/09 01:39:59;;;;;;;17.87;8.30;;;12.40;99.90;;;;;;4972981;28;20444;-69
2023/10/09 01:42:34;;;;;;;19.17;8.73;;;12.40;99.90;;;;;;4972466;28;20582;-71
2023/10/09 01:45:10;;;;;;;19.53;7.60;;;12.50;99.90;;;;;;4973119;28;20464;-72
2023/10/09 01:47:38;;;;;;;20.43;8.50;;;12.40;99.90;;;;;;4973067;28;20450;-71
2023/10/09 01:50:11;;;;;;;15.93;7.50;;;12.40;99.90;;;;;;4972841;28;20441;-71
2023/10/09 01:52:39;;;;;;;16.40;8.73;;;12.50;99.90;;;;;;4972017;28;20471;-71
2023/10/09 01:55:28;;;;;;;17.17;7.60;;;12.60;99.90;;;;;;4972513;28;21318;-71
2023/10/09 01:58:02;;;;;;;16.10;7.30;;;12.70;99.90;;;;;;4972650;28;20517;-72
2023/10/09 02:00:29;;;;;;;14.40;7.53;;;12.60;99.90;;;;;;4972082;28;20446;-71
2023/10/09 02:03:02;;;;;;;14.43;7.20;;;12.50;99.90;;;;;;4970393;28;21030;-71
2023/10/09 02:05:33;;;;;;;17.53;9.30;;;12.60;99.90;;;;;;4972283;28;20456;-71
2023/10/09 02:08:03;;;;;;;16.37;7.37;;;12.50;99.90;;;;;;4964453;28;20450;-70
2023/10/09 02:10:37;;;;;;;18.30;8.97;;;12.50;99.90;;;;;;4972328;28;20467;-75
2023/10/09 02:13:09;;;;;;;21.70;8.00;;;12.50;99.90;;;;;;4972165;28;21035;-72
2023/10/09 02:15:45;;;;;;;16.00;7.70;;;12.50;99.90;;;;;;4972315;28;20517;-71
2023/10/09 02:18:18;;;;;;;18.67;8.37;;;12.50;99.90;;;;;;4972174;28;20488;-72
2023/10/09 02:20:55;;;;;;;17.50;7.80;;;12.50;99.90;;;;;;4970876;28;20582;-71
2023/10/09 02:23:30;;;;;;;21.57;8.60;;;12.30;99.90;;;;;;4972149;28;20493;-70
2023/10/09 02:25:58;;;;;;;17.40;7.90;;;12.30;99.90;;;;;;4972123;28;20483;-70
2023/10/09 02:28:32;;;;;;;17.40;7.40;;;12.30;99.90;;;;;;4971872;28;20688;-71
2023/10/09 02:31:02;;;;;;;16.83;7.90;;;12.30;99.90;;;;;;4971550;28;20454;-72
2023/10/09 02:33:33;;;;;;;16.93;7.30;;;12.20;99.90;;;;;;4971999;28;20951;-70
2023/10/09 02:36:05;;;;;;;16.17;8.23;;;12.30;99.90;;;;;;4971866;28;20520;-70
2023/10/09 02:38:42;;;;;;;15.73;6.80;;;12.30;99.90;;;;;;4971572;28;20512;-71
2023/10/09 02:41:22;;;;;;;13.40;7.00;;;12.40;99.90;;;;;;4971050;28;20505;-70
2023/10/09 02:43:55;;;;;;;19.93;6.63;;;12.50;99.90;;;;;;4971483;28;20839;-70
2023/10/09 02:46:29;;;;;;;15.63;6.17;;;12.50;99.90;;;;;;4971870;28;20453;-72
2023/10/09 02:48:58;;;;;;;15.67;6.90;;;12.50;99.90;;;;;;4971571;28;21056;-71
2023/10/09 02:51:36;;;;;;;14.23;6.30;;;12.50;99.90;;;;;;4971066;28;20932;-71
2023/10/09 02:54:17;;;;;;;19.37;6.93;;;12.50;99.90;;;;;;4971199;28;20533;-71
2023/10/09 02:56:54;;;;;;;16.17;6.60;;;12.50;99.90;;;;;;4969481;28;20988;-71
2023/10/09 02:59:24;;;;;;;15.77;7.17;;;12.60;99.90;;;;;;4970798;28;20949;-68
2023/10/09 03:01:53;;;;;;;16.03;6.87;;;12.50;99.90;;;;;;4970779;28;20440;-70
2023/10/09 03:04:23;;;;;;;17.40;6.53;;;12.50;99.90;;;;;;4971480;28;20861;-71
2023/10/09 03:06:53;;;;;;;18.20;7.80;;;12.60;99.90;;;;;;4971469;28;20448;-72
2023/10/09 03:09:27;;;;;;;17.70;7.47;;;12.60;99.90;;;;;;4971122;28;20449;-70
2023/10/09 03:12:01;;;;;;;16.33;7.50;;;12.60;99.90;;;;;;4970595;28;20919;-70
2023/10/09 03:14:35;;;;;;;17.17;8.13;;;12.70;99.90;;;;;;4971034;28;20439;-72
2023/10/09 03:17:03;;;;;;;20.23;7.00;;;12.80;99.90;;;;;;4971156;28;20465;-70
2023/10/09 03:19:37;;;;;;;19.43;7.10;;;12.90;99.90;;;;;;4971076;28;20459;-69
2023/10/09 03:22:09;;;;;;;14.90;6.93;;;12.90;99.90;;;;;;4970671;28;20443;-71
2023/10/09 03:24:37;;;;;;;16.97;6.60;;;12.90;99.90;;;;;;4970984;28;20490;-69
2023/10/09 03:27:05;;;;;;;19.93;7.80;;;12.90;99.90;;;;;;4970671;28;20454;-72
2023/10/09 03:29:35;;;;;;;18.10;8.03;;;12.90;99.90;;;;;;4970980;28;20519;-70
2023/10/09 03:32:03;;;;;;;18.87;7.90;;;12.90;99.90;;;;;;4970168;28;20455;-72
2023/10/09 03:34:31;;;;;;;18.33;7.33;;;12.90;99.90;;;;;;4970799;28;20449;-70
2023/10/09 03:37:07;;;;;;;16.50;7.00;;;12.80;99.90;;;;;;4970716;28;20455;-71
2023/10/09 03:39:41;;;;;;;19.50;7.73;;;12.80;99.90;;;;;;4970389;28;20448;-73
2023/10/09 03:42:18;;;;;;;16.20;7.30;;;12.80;99.90;;;;;;4970148;28;20813;-72
2023/10/09 03:44:52;;;;;;;17.53;6.83;;;12.70;99.90;;;;;;4970463;28;20865;-70
2023/10/09 03:47:22;;;;;;;16.30;7.10;;;12.80;99.90;;;;;;4970477;28;20447;-70
2023/10/09 03:49:53;;;;;;;17.17;7.63;;;12.80;99.90;;;;;;4970354;28;20453;-70
2023/10/09 03:52:25;;;;;;;14.73;6.30;;;12.80;99.90;;;;;;4970202;28;20504;-72
2023/10/09 03:54:54;;;;;;;15.73;7.10;;;12.80;99.90;;;;;;4970755;28;20450;-72
2023/10/09 03:57:23;;;;;;;16.80;7.30;;;12.70;99.90;;;;;;4970063;28;20599;-71
2023/10/09 03:59:53;;;;;;;17.37;7.33;;;12.70;99.90;;;;;;4970096;28;20463;-73
2023/10/09 04:02:22;;;;;;;16.50;7.30;;;12.70;99.90;;;;;;4969631;28;20467;-72
2023/10/09 04:04:51;;;;;;;15.57;6.83;;;12.70;99.90;;;;;;4968545;28;20490;-69
2023/10/09 04:07:21;;;;;;;16.77;7.10;;;12.70;99.90;;;;;;4970276;28;20856;-72
2023/10/09 04:09:54;;;;;;;17.77;7.93;;;12.70;99.90;;;;;;4970183;28;20459;-69
2023/10/09 04:12:24;;;;;;;16.27;7.10;;;12.60;99.90;;;;;;4966342;28;20465;-69
2023/10/09 04:15:01;;;;;;;15.40;7.33;;;12.60;99.90;;;;;;4970220;28;20440;-69
2023/10/09 04:17:35;;;;;;;18.30;7.53;;;12.50;99.90;;;;;;4969451;28;20446;-69
2023/10/09 04:23:05;;;;;;;15.20;6.40;;;12.30;99.90;;;;;;4933431;28;20478;-71
2023/10/09 04:25:42;;;;;;;15.40;6.43;;;12.20;99.90;;;;;;4969795;28;20855;-71
2023/10/09 04:28:18;;;;;;;14.80;8.03;;;12.20;99.90;;;;;;4970233;28;20538;-71
2023/10/09 04:30:53;;;;;;;13.67;6.90;;;12.20;99.90;;;;;;4969106;28;20975;-72
2023/10/09 04:33:42;;;;;;;16.03;6.97;;;12.20;99.90;;;;;;4969972;28;21002;-70
2023/10/09 04:36:21;;;;;;;19.70;7.03;;;12.20;99.90;;;;;;4970368;28;20447;-72
2023/10/09 04:41:52;;;;;;;19.50;6.47;;;12.20;99.90;;;;;;4969084;28;20458;-73
2023/10/09 04:44:22;;;;;;;16.20;6.20;;;12.20;99.90;;;;;;4972776;28;20497;-67
2023/10/09 04:49:49;;;;;;;16.70;7.07;;;12.40;99.90;;;;;;4971061;28;20495;-70
2023/10/09 04:52:51;;;;;;;16.83;6.47;;;12.40;99.90;;;;;;4972782;28;21021;-70
2023/10/09 04:55:17;;;;;;;15.60;6.03;;;12.30;99.90;;;;;;4971160;28;20912;-71
2023/10/09 04:57:46;;;;;;;14.90;5.83;;;12.20;99.90;;;;;;4971547;28;20521;-70
2023/10/09 05:00:46;;;;;;;16.60;6.97;;;12.30;99.90;;;;;;4972548;28;20440;-72
2023/10/09 05:03:24;;;;;;;17.80;7.27;;;12.30;99.90;;;;;;4972911;28;20475;-70
2023/10/09 05:05:59;;;;;;;15.47;6.77;;;12.30;99.90;;;;;;4972877;28;20482;-70
2023/10/09 05:08:32;;;;;;;20.53;8.53;;;12.40;99.90;;;;;;4973722;28;20453;-72
2023/10/09 05:11:15;;;;;;;16.00;6.80;;;12.50;99.90;;;;;;4970626;28;20447;-70
2023/10/09 05:13:57;;;;;;;13.57;5.57;;;12.50;99.90;;;;;;4973054;28;20451;-73
2023/10/09 05:16:26;;;;;;;15.30;6.23;;;12.50;99.90;;;;;;4969582;28;21033;-72
2023/10/09 05:18:56;;;;;;;16.90;6.03;;;12.50;99.90;;;;;;4968643;28;20453;-70
2023/10/09 05:21:36;;;;;;;15.40;6.30;;;12.50;99.90;;;;;;4973506;28;20456;-73
2023/10/09 05:24:16;;;;;;;16.83;6.33;;;12.50;99.90;;;;;;4972906;28;20491;-70
2023/10/09 05:26:52;;;;;;;17.43;6.57;;;12.50;99.90;;;;;;4973407;28;20439;-72
2023/10/09 05:29:34;;;;;;;17.77;6.93;;;12.50;99.90;;;;;;4973244;28;20515;-72
2023/10/09 05:32:05;;;;;;;15.57;5.93;;;12.40;99.90;;;;;;4972608;28;20463;-70
2023/10/09 05:34:34;;;;;;;16.73;6.50;;;12.50;99.90;;;;;;4973403;28;20451;-70
2023/10/09 05:37:17;;;;;;;18.07;6.90;;;12.40;99.90;;;;;;4973264;28;20451;-70
2023/10/09 05:40:08;;;;;;;15.57;5.80;;;12.40;99.90;;;;;;4971803;28;20455;-69
2023/10/09 05:42:42;;;;;;;15.47;5.70;;;12.50;99.90;;;;;;4971999;28;20471;-69
2023/10/09 05:51:12;;;;;;;17.63;5.83;;;12.60;99.90;;;;;;4971278;28;20849;-71
2023/10/09 06:04:54;;;;;;;18.73;7.90;;;12.60;99.90;;;;;;4973462;28;20487;-69
2023/10/09 06:07:40;;;;;;;17.70;7.00;;;12.80;99.90;;;;;;4972505;28;20443;-72
2023/10/09 06:10:18;;;;;;;20.20;6.63;;;12.80;99.90;;;;;;4972274;28;20974;-72
2023/10/09 06:13:03;;;;;;;20.33;6.50;;;12.90;99.90;;;;;;4971946;28;21035;-71
2023/10/09 06:16:01;;;;;;;22.03;7.10;;;13.00;99.90;;;;;;4972440;28;20482;-69
2023/10/09 06:18:33;;;;;;;20.97;7.10;;;13.10;99.90;;;;;;4972290;28;20482;-70
2023/10/09 06:21:09;;;;;;;23.00;7.10;;;13.20;99.90;;;;;;4971932;28;20836;-69
2023/10/09 06:24:08;;;;;;;19.90;7.27;;;13.20;99.90;;;;;;4972075;28;20479;-70
2023/10/09 06:26:36;;;;;;;16.60;7.30;;;13.10;99.90;;;;;;4972307;28;20447;-69
2023/10/09 06:31:59;;;;;;;16.60;6.73;;;13.20;99.90;;;;;;4961145;28;20455;-71
2023/10/09 06:34:32;;;;;;;18.27;5.83;;;13.30;99.90;;;;;;4971916;28;20439;-71
2023/10/09 06:37:07;;;;;;;19.17;6.60;;;13.40;99.90;;;;;;4971903;28;20448;-69
2023/10/09 06:40:23;;;;;;;15.43;6.70;;;13.40;99.90;;;;;;4972087;28;20452;-70
2023/10/09 06:42:51;;;;;;;19.93;8.60;;;13.30;99.90;;;;;;4971268;28;20527;-70
2023/10/09 06:45:19;;;;;;;14.03;6.63;;;13.40;99.90;;;;;;4972088;28;20518;-67
2023/10/09 06:47:55;;;;;;;17.00;7.67;;;13.50;99.90;;;;;;4971909;28;20543;-70
2023/10/09 06:50:55;;;;;;;17.60;7.70;;;13.60;99.90;;;;;;4971888;28;20541;-70
2023/10/09 06:53:28;;;;;;;21.60;7.87;;;13.60;99.90;;;;;;4971124;28;20901;-71
2023/10/09 06:56:05;;;;;;;20.40;7.50;;;13.70;99.90;;;;;;4971710;28;20435;-73
2023/10/09 06:58:41;;;;;;;17.63;6.70;;;13.90;99.90;;;;;;4971447;28;21034;-71
2023/10/09 07:01:28;;;;;;;18.30;6.90;;;14.00;99.90;;;;;;4971079;28;20826;-73
2023/10/09 07:04:10;;;;;;;20.83;7.17;;;14.10;99.90;;;;;;4971422;28;20467;-69
2023/10/09 07:06:50;;;;;;;18.97;7.90;;;14.20;99.90;;;;;;4970761;28;20586;-72
2023/10/09 07:09:22;;;;;;;23.00;8.90;;;14.10;99.90;;;;;;4971406;28;20447;-72
2023/10/09 07:11:58;;;;;;;18.70;7.17;;;14.10;99.90;;;;;;4970856;28;21029;-71
2023/10/09 07:17:23;;;;;;;19.90;8.63;;;14.20;99.90;;;;;;4971452;28;20444;-70
2023/10/09 07:20:08;;;;;;;18.97;7.50;;;14.40;99.90;;;;;;4970999;28;20453;-73
2023/10/09 07:22:52;;;;;;;17.50;7.43;;;14.50;99.90;;;;;;4970570;28;20525;-70
2023/10/09 07:28:18;;;;;;;16.97;6.93;;;14.80;99.90;;;;;;4960587;28;20501;-72
2023/10/09 07:30:46;;;;;;;18.90;7.00;;;14.90;99.90;;;;;;4970295;28;20451;-72
2023/10/09 07:33:30;;;;;;;21.63;7.50;;;15.00;99.90;;;;;;4971083;28;20474;-70
2023/10/09 07:36:06;;;;;;;17.67;6.20;;;15.10;99.90;;;;;;4970246;28;20915;-74
2023/10/09 07:38:36;;;;;;;19.03;7.03;;;15.20;99.90;;;;;;4969633;28;20439;-68
2023/10/09 07:43:50;;;;;;;18.53;7.10;;;15.40;99.90;;;;;;4970281;28;20472;-71
2023/10/09 07:49:09;;;;;;;18.77;8.33;;;15.40;99.90;;;;;;4969708;28;20452;-67
2023/10/09 07:51:43;;;;;;;22.63;7.43;;;15.50;99.90;;;;;;4970009;28;20454;-70
2023/10/09 07:54:14;;;;;;;23.80;6.77;;;15.60;99.90;;;;;;4970458;28;20898;-68
2023/10/09 07:56:44;;;;;;;20.63;7.40;;;15.80;99.90;;;;;;4970648;28;20491;-70
2023/10/09 07:59:17;;;;;;;21.10;6.87;;;15.90;99.90;;;;;;4970354;28;20476;-69
2023/10/09 08:01:52;;;;;;;16.30;6.90;;;16.00;99.90;;;;;;4969607;28;20442;-73
2023/10/09 08:04:37;;;;;;;21.20;7.03;;;16.10;99.90;;;;;;4970127;28;20707;-71
2023/10/09 08:07:07;;;;;;;18.10;7.20;;;16.20;99.90;;;;;;4970283;28;20578;-71
2023/10/09 08:12:57;;;;;;;16.63;9.23;;;16.60;99.90;;;;;;4968054;28;20482;-72
2023/10/09 08:15:34;;;;;;;18.30;6.90;;;16.80;99.90;;;;;;4967920;28;20570;-70
2023/10/09 08:18:09;;;;;;;17.80;6.33;;;17.00;99.90;;;;;;4967648;28;20471;-70
2023/10/09 08:21:19;;;;;;;17.77;6.37;;;17.10;99.90;;;;;;4969134;28;20986;-71
2023/10/09 08:23:48;;;;;;;17.93;8.33;;;17.30;99.90;;;;;;4969592;28;20877;-70
2023/10/09 08:26:28;;;;;;;17.00;6.80;;;17.50;99.90;;;;;;4969837;28;20918;-69
2023/10/09 08:31:46;;;;;;;18.60;8.43;;;17.70;99.90;;;;;;4968384;28;20535;-70
2023/10/09 08:34:24;;;;;;;14.10;6.10;;;17.80;99.90;;;;;;4967342;28;20451;-69
2023/10/09 08:36:55;;;;;;;18.23;7.20;;;18.00;99.90;;;;;;4951351;28;20441;-72
2023/10/09 08:39:26;;;;;;;23.50;7.10;;;18.10;99.90;;;;;;4953811;28;20494;-72
2023/10/09 08:41:57;;;;;;;16.37;7.30;;;18.20;99.90;;;;;;4950896;28;20495;-70
2023/10/09 08:44:29;;;;;;;21.57;8.07;;;18.20;99.90;;;;;;4956183;28;20435;-72
2023/10/09 08:46:58;;;;;;;17.03;8.00;;;18.20;99.90;;;;;;4953689;28;20477;-71
2023/10/09 08:49:27;;;;;;;19.87;7.90;;;18.10;99.90;;;;;;4953461;28;20527;-73
2023/10/09 08:51:56;;;;;;;20.13;7.17;;;18.20;99.90;;;;;;4953306;28;20537;-72
2023/10/09 08:54:24;;;;;;;19.83;6.40;;;18.20;99.90;;;;;;4955278;28;20515;-71
2023/10/09 08:56:58;;;;;;;15.47;6.07;;;18.30;99.90;;;;;;4967035;28;20440;-72
2023/10/09 08:59:26;;;;;;;28.17;8.20;;;18.30;99.90;;;;;;4969599;28;21063;-76
2023/10/09 09:01:59;;;;;;;19.80;6.60;;;18.50;99.90;;;;;;4966896;28;20498;-72
2023/10/09 09:04:45;;;;;;;17.23;6.60;;;18.70;99.90;;;;;;4969889;28;20476;-73
2023/10/09 09:07:28;;;;;;;17.20;7.60;;;18.80;99.90;;;;;;4970024;28;20494;-71
2023/10/09 09:10:01;;;;;;;21.40;7.73;;;18.90;99.90;;;;;;4967868;28;20439;-71
2023/10/09 09:12:37;;;;;;;18.53;7.33;;;19.00;99.90;;;;;;4969230;28;20467;-71
2023/10/09 09:15:18;;;;;;;18.60;7.47;;;19.10;99.90;;;;;;4969227;28;20439;-72
2023/10/09 09:17:46;;;;;;;23.30;7.83;;;19.30;99.90;;;;;;4968970;28;20472;-74
2023/10/09 09:20:27;;;;;;;18.77;6.60;;;19.40;99.90;;;;;;4967194;28;20448;-74
2023/10/09 09:22:57;;;;;;;17.40;7.53;;;19.40;99.90;;;;;;4968727;28;20554;-73
2023/10/09 09:25:39;;;;;;;19.90;7.00;;;19.10;99.90;;;;;;4969340;28;20436;-71
2023/10/09 09:28:12;;;;;;;30.40;9.40;;;18.90;99.90;;;;;;4968832;28;20443;-71
2023/10/09 09:30:41;;;;;;;18.77;6.17;;;19.00;99.90;;;;;;4972626;28;20482;-71
2023/10/09 09:33:20;;;;;;;16.83;6.70;;;18.90;99.90;;;;;;4972309;28;20468;-72
2023/10/09 09:36:02;;;;;;;18.10;6.90;;;19.20;99.90;;;;;;4973077;28;20498;-72
2023/10/09 09:38:41;;;;;;;17.37;6.47;;;19.60;99.90;;;;;;4973204;28;20493;-71
2023/10/09 09:41:10;;;;;;;19.10;6.30;;;19.80;99.90;;;;;;4972237;28;20444;-72
2023/10/09 09:43:40;;;;;;;17.30;6.10;;;20.10;99.90;;;;;;4972575;28;20467;-71
2023/10/09 09:46:12;;;;;;;18.67;6.53;;;20.40;99.90;;;;;;4972423;28;20483;-71
2023/10/09 09:48:44;;;;;;;16.97;6.77;;;20.60;99.90;;;;;;4972789;28;20474;-72
2023/10/09 09:51:17;;;;;;;20.40;7.33;;;20.70;99.90;;;;;;4972151;28;20440;-72
2023/10/09 09:53:48;;;;;;;17.97;7.17;;;20.70;99.90;;;;;;4972402;28;20507;-75
2023/10/09 09:56:18;;;;;;;19.53;5.83;;;20.90;99.90;;;;;;4972667;28;20441;-72
2023/10/09 09:58:53;;;;;;;18.43;6.60;;;21.10;99.90;;;;;;4972759;28;20828;-72
2023/10/09 10:01:26;;;;;;;18.07;6.53;;;21.10;99.90;;;;;;4972353;28;20447;-71
2023/10/09 10:03:58;;;;;;;16.57;6.47;;;21.30;99.90;;;;;;4964641;28;20463;-72
2023/10/09 10:06:32;;;;;;;20.40;6.20;;;21.40;99.90;;;;;;4972766;28;20480;-72
2023/10/09 10:09:00;;;;;;;17.13;6.23;;;21.60;99.90;;;;;;4971212;28;20484;-73
2023/10/09 10:11:44;;;;;;;22.90;7.07;;;21.50;99.90;;;;;;4972101;28;20451;-73
2023/10/09 10:14:21;;;;;;;18.10;6.60;;;21.50;99.90;;;;;;4972377;28;20483;-72
2023/10/09 10:17:05;;;;;;;18.73;7.47;;;21.60;99.90;;;;;;4972690;28;20446;-71
2023/10/09 10:20:25;;;;;;;15.30;6.00;;;21.80;99.90;;;;;;4973004;28;20466;-71
2023/10/09 10:22:54;;;;;;;20.93;8.40;;;21.80;99.90;;;;;;4970830;28;20542;-69
2023/10/09 10:25:41;;;;;;;19.57;7.33;;;22.10;99.90;;;;;;4972302;28;20536;-73
2023/10/09 10:28:35;;;;;;;22.10;7.17;;;22.20;99.90;;;;;;4971996;28;20566;-71
2023/10/09 10:31:06;;;;;;;19.03;6.37;;;22.30;99.90;;;;;;4971848;28;20468;-72
2023/10/09 10:34:07;;;;;;;21.93;7.13;;;22.50;99.90;;;;;;4971617;28;20471;-72
2023/10/09 10:36:35;;;;;;;21.33;7.30;;;22.70;99.90;;;;;;4972007;28;20872;-73
2023/10/09 10:39:09;;;;;;;19.63;7.03;;;22.90;99.90;;;;;;4971727;28;20557;-72
2023/10/09 10:41:50;;;;;;;22.43;8.70;;;22.90;99.90;;;;;;4970480;28;20494;-72
2023/10/09 10:44:37;;;;;;;17.33;6.07;;;22.90;99.90;;;;;;4971163;28;21006;-73
2023/10/09 10:47:15;;;;;;;19.90;7.47;;;23.00;99.90;;;;;;4970099;28;21018;-73
2023/10/09 10:49:49;;;;;;;21.53;7.10;;;22.90;99.90;;;;;;4971701;28;20450;-73
2023/10/09 10:52:35;;;;;;;23.30;7.87;;;23.00;99.90;;;;;;4970034;28;20842;-77
2023/10/09 10:55:18;;;;;;;22.40;8.00;;;22.90;99.90;;;;;;4971159;28;20447;-72
2023/10/09 10:58:00;;;;;;;20.70;7.60;;;23.00;99.90;;;;;;4968823;28;20475;-70
2023/10/09 11:03:23;;;;;;;25.90;8.60;;;23.20;99.90;;;;;;4970652;28;20549;-70
2023/10/09 11:05:51;;;;;;;23.83;7.30;;;23.20;99.90;;;;;;4969486;28;20443;-73
2023/10/09 11:08:30;;;;;;;19.80;7.00;;;23.30;99.90;;;;;;4970895;28;20487;-70
2023/10/09 11:11:18;;;;;;;22.67;8.20;;;23.40;99.90;;;;;;4970461;28;20439;-72
2023/10/09 11:13:56;;;;;;;27.73;11.00;;;23.50;99.90;;;;;;4968760;28;20464;-72
2023/10/09 11:16:41;;;;;;;24.83;7.63;;;23.70;99.90;;;;;;4971106;28;20827;-72
2023/10/09 11:19:22;;;;;;;20.40;7.40;;;23.90;99.90;;;;;;4970975;28;20930;-73
2023/10/09 11:21:58;;;;;;;21.07;6.90;;;24.70;99.90;;;;;;4970411;28;20522;-72
2023/10/09 11:24:27;;;;;;;22.90;7.33;;;25.40;99.90;;;;;;4970274;28;20439;-71
2023/10/09 11:27:05;;;;;;;21.33;8.97;;;25.70;97.50;;;;;;4970678;28;20517;-72
2023/10/09 11:32:18;;;;;;;19.80;6.30;;;25.20;99.80;;;;;;4969523;28;20506;-71
2023/10/09 11:34:51;;;;;;;18.90;7.60;;;25.00;99.50;;;;;;4967494;28;20973;-71
2023/10/09 11:40:42;;;;;;;22.30;7.60;;;24.40;99.90;;;;;;4967101;28;20526;-70
2023/10/09 11:43:13;;;;;;;17.23;5.53;;;23.90;99.90;;;;;;4969328;28;20467;-68
2023/10/09 11:45:54;;;;;;;23.40;6.43;;;23.40;99.90;;;;;;4971734;28;20439;-71
2023/10/09 11:48:25;;;;;;;21.73;6.50;;;23.20;99.90;;;;;;4970419;28;20490;-70
2023/10/09 11:50:55;;;;;;;21.50;6.73;;;22.90;99.90;;;;;;4971770;28;21002;-74
2023/10/09 11:53:36;;;;;;;17.83;6.00;;;22.60;99.90;;;;;;4969944;28;20571;-72
2023/10/09 11:56:04;;;;;;;20.07;5.70;;;22.50;99.90;;;;;;4971393;28;20490;-71
2023/10/09 11:58:33;;;;;;;18.03;6.40;;;22.60;99.90;;;;;;4971484;28;20442;-70
2023/10/09 12:01:17;;;;;;;23.80;6.80;;;22.90;99.90;;;;;;4970176;28;20459;-72
2023/10/09 12:03:49;;;;;;;21.47;5.87;;;23.10;99.90;;;;;;4970278;28;20468;-73
2023/10/09 12:06:19;;;;;;;19.93;7.03;;;23.10;99.90;;;;;;4970136;28;20447;-72
2023/10/09 12:08:50;;;;;;;17.60;6.20;;;23.10;99.90;;;;;;4970810;28;20483;-71
2023/10/09 12:11:22;;;;;;;19.20;6.07;;;23.20;99.90;;;;;;4968112;28;20462;-71
2023/10/09 12:13:56;;;;;;;17.30;5.83;;;23.30;99.90;;;;;;4970033;28;20849;-73
2023/10/09 12:16:27;;;;;;;21.20;6.43;;;23.40;99.90;;;;;;4970454;28;20451;-72
2023/10/09 12:18:56;;;;;;;19.60;6.37;;;23.50;99.90;;;;;;4970259;28;20450;-71
2023/10/09 12:21:27;;;;;;;18.77;6.43;;;23.50;99.90;;;;;;4970008;28;20458;-71
2023/10/09 12:23:57;;;;;;;21.03;6.10;;;23.50;99.90;;;;;;4970288;28;20468;-73
2023/10/09 12:26:28;;;;;;;19.53;6.00;;;23.60;99.90;;;;;;4970487;28;20470;-72
2023/10/09 12:28:57;;;;;;;19.93;7.00;;;23.70;99.90;;;;;;4970062;28;20549;-73
2023/10/09 12:31:25;;;;;;;18.37;6.03;;;24.00;99.90;;;;;;4969809;28;20467;-71
2023/10/09 12:33:53;;;;;;;16.87;6.10;;;24.40;99.90;;;;;;4970113;28;20851;-72
2023/10/09 12:36:21;;;;;;;21.40;7.17;;;24.80;99.90;;;;;;4970102;28;20443;-71
2023/10/09 12:38:53;;;;;;;18.47;6.50;;;24.90;99.90;;;;;;4970057;28;20443;-72
2023/10/09 12:41:26;;;;;;;23.27;6.57;;;25.20;99.90;;;;;;4970207;28;20452;-71
2023/10/09 12:43:57;;;;;;;31.80;7.83;;;25.30;99.90;;;;;;4970484;28;20583;-71
2023/10/09 12:46:27;;;;;;;20.20;6.50;;;25.40;98.10;;;;;;4970437;28;21212;-71
2023/10/09 12:48:56;;;;;;;21.70;6.30;;;25.10;97.30;;;;;;4970152;28;20483;-70
2023/10/09 12:51:29;;;;;;;20.83;6.80;;;24.90;96.60;;;;;;4969759;28;21062;-70
2023/10/09 12:53:58;;;;;;;24.07;6.40;;;24.70;97.40;;;;;;4969949;28;20595;-70
2023/10/09 12:56:32;;;;;;;19.70;6.10;;;24.40;96.90;;;;;;4968483;28;20559;-72
2023/10/09 12:59:04;;;;;;;23.80;6.77;;;24.10;93.50;;;;;;4969564;28;20529;-71
2023/10/09 13:01:38;;;;;;;18.90;5.93;;;24.10;93.70;;;;;;4968702;28;21086;-74
2023/10/09 13:04:11;;;;;;;18.40;6.10;;;24.10;95.60;;;;;;4971530;28;20543;-71
2023/10/09 13:06:43;;;;;;;13.27;4.53;;;24.10;93.90;;;;;;4973701;28;20452;-71
2023/10/09 13:09:13;;;;;;;17.93;5.83;;;24.20;98.80;;;;;;4973646;28;20510;-71
2023/10/09 13:11:42;;;;;;;16.73;5.33;;;24.30;99.90;;;;;;4973132;28;20986;-73
2023/10/09 13:14:16;;;;;;;20.27;6.30;;;24.60;98.30;;;;;;4972959;28;20471;-71
2023/10/09 13:16:47;;;;;;;19.53;6.40;;;24.80;97.00;;;;;;4973673;28;20450;-73
2023/10/09 13:19:15;;;;;;;21.63;6.40;;;25.20;95.30;;;;;;4973325;28;20447;-74
2023/10/09 13:21:43;;;;;;;17.23;5.30;;;25.40;95.80;;;;;;4972966;28;20482;-71
2023/10/09 13:24:15;;;;;;;19.10;5.70;;;25.50;94.00;;;;;;4973331;28;20467;-71
2023/10/09 13:26:46;;;;;;;19.50;5.40;;;25.50;91.20;;;;;;4973275;28;20552;-72
2023/10/09 13:29:22;;;;;;;17.50;5.23;;;25.50;89.80;;;;;;4973476;28;20487;-73
2023/10/09 13:31:52;;;;;;;17.37;6.50;;;25.60;88.80;;;;;;4971390;28;20451;-72
2023/10/09 13:34:20;;;;;;;16.23;5.40;;;25.60;80.10;;;;;;4970049;28;21002;-71
2023/10/09 13:36:52;;;;;;;16.73;4.60;;;25.60;73.80;;;;;;4968748;28;20487;-72
2023/10/09 13:39:23;;;;;;;16.33;5.53;;;25.40;72.90;;;;;;4967618;28;20486;-70
2023/10/09 13:41:57;;;;;;;18.60;6.30;;;25.40;73.50;;;;;;4965683;28;20443;-71
2023/10/09 13:44:28;;;;;;;16.30;6.03;;;25.30;71.70;;;;;;4970753;28;20449;-71
2023/10/09 13:46:57;;;;;;;14.87;5.60;;;25.30;64.30;;;;;;4975064;28;20447;-71
2023/10/09 13:49:29;;;;;;;21.03;6.77;;;25.40;63.10;;;;;;4970881;28;20483;-72
2023/10/09 13:51:58;;;;;;;13.13;5.47;;;25.50;55.50;;;;;;4970621;28;20435;-71
2023/10/09 13:54:39;;;;;;;15.37;6.30;;;25.60;60.20;;;;;;4971014;28;20542;-72
2023/10/09 13:57:10;;;;;;;16.00;6.40;;;25.80;48.10;;;;;;4971247;28;20470;-71
2023/10/09 13:59:43;;;;;;;17.00;6.23;;;26.20;50.90;;;;;;4971012;28;20487;-72
2023/10/09 14:02:17;;;;;;;13.00;6.33;;;26.60;43.20;;;;;;4970411;28;20935;-71
2023/10/09 14:04:47;;;;;;;15.37;6.60;;;26.90;43.50;;;;;;4970378;28;20451;-71
2023/10/09 14:07:20;;;;;;;14.30;6.20;;;27.00;39.40;;;;;;4970676;28;20448;-70
2023/10/09 14:10:06;;;;;;;13.83;6.73;;;27.10;39.50;;;;;;4969444;28;20479;-71